Time,TemperatureF,DewpointF,PressureIn,WindDirection,WindDirectionDegrees,WindSpeedMPH,WindSpeedGustMPH,Humidity,HourlyPrecipIn,Conditions,Clouds,dailyrainin,SoftwareType,DateUTC
2013-04-13 00:00:00,58.0,-99.9,29.83,ESE,118,0.0,0.0,-999,-99.99,,,-99.99,,2013-04-13 07:00:00,
2013-04-13 00:10:00,57.8,-99.9,29.83,ENE,57,0.0,17.2,-999,-99.99,,,-99.99,,2013-04-13 07:10:00,
2013-04-13 00:20:00,57.6,-99.9,29.83,ESE,112,0.0,11.4,-999,-99.99,,,-99.99,,2013-04-13 07:20:00,
2013-04-13 00:25:00,57.6,-99.9,29.82,ESE,115,12.7,16.4,-999,-99.99,,,-99.99,,2013-04-13 07:25:00,
2013-04-13 00:30:00,57.7,-99.9,29.83,East,86,0.0,0.0,-999,-99.99,,,-99.99,,2013-04-13 07:30:00,
2013-04-13 00:35:00,57.3,-99.9,29.82,East,88,14.8,16.3,-999,-99.99,,,-99.99,,2013-04-13 07:35:00,
2013-04-13 00:40:00,56.9,-99.9,29.82,East,100,0.0,20.6,-999,-99.99,,,-99.99,,2013-04-13 07:40:00,
2013-04-13 00:50:00,56.6,-99.9,29.82,ENE,74,0.0,0.0,-999,-99.99,,,-99.99,,2013-04-13 07:50:00,
2013-04-13 00:55:00,56.4,-99.9,29.83,SE,124,0.0,17.2,-999,-99.99,,,-99.99,,2013-04-13 07:55:00,
2013-04-13 01:00:00,56.7,-99.9,29.83,ENE,69,0.0,0.0,-999,-99.99,,,-99.99,,2013-04-13 08:00:00,
2013-04-13 01:05:00,56.4,-99.9,29.82,ENE,69,0.0,0.0,-999,-99.99,,,-99.99,,2013-04-13 08:05:00,
2013-04-13 01:15:00,56.3,-99.9,29.82,East,84,8.4,16.4,-999,-99.99,,,-99.99,,2013-04-13 08:15:00,
2013-04-13 01:25:00,56.0,-99.9,29.82,ESE,114,0.0,0.0,-999,-99.99,,,-99.99,,2013-04-13 08:25:00,
2013-04-13 01:35:00,55.4,-99.9,29.82,East,88,0.0,0.0,-999,-99.99,,,-99.99,,2013-04-13 08:35:00,
2013-04-13 01:45:00,55.3,-99.9,29.82,ENE,69,8.9,18.0,-999,-99.99,,,-99.99,,2013-04-13 08:45:00,
2013-04-13 01:55:00,55.0,-99.9,29.81,ENE,73,0.0,20.1,-999,-99.99,,,-99.99,,2013-04-13 08:55:00,
2013-04-13 02:00:00,54.9,-99.9,29.81,East,95,13.8,23.8,-999,-99.99,,,-99.99,,2013-04-13 09:00:00,
2013-04-13 02:05:00,54.8,-99.9,29.81,East,83,13.8,22.5,-999,-99.99,,,-99.99,,2013-04-13 09:05:00,
2013-04-13 02:15:00,54.4,-99.9,29.80,East,88,10.8,17.9,-999,-99.99,,,-99.99,,2013-04-13 09:15:00,
2013-04-13 02:25:00,53.6,-99.9,29.80,ESE,103,0.0,20.9,-999,-99.99,,,-99.99,,2013-04-13 09:25:00,
2013-04-13 02:30:00,53.7,-99.9,29.80,ESE,110,0.0,24.6,-999,-99.99,,,-99.99,,2013-04-13 09:30:00,
2013-04-13 02:40:00,54.0,-99.9,29.79,East,80,0.0,23.2,-999,-99.99,,,-99.99,,2013-04-13 09:40:00,
2013-04-13 02:45:00,53.6,-99.9,29.79,East,91,0.0,13.8,-999,-99.99,,,-99.99,,2013-04-13 09:45:00,
2013-04-13 02:50:00,54.1,-99.9,29.79,ESE,107,0.0,0.0,-999,-99.99,,,-99.99,,2013-04-13 09:50:00,
2013-04-13 02:55:00,54.2,-99.9,29.80,ESE,107,0.0,0.0,-999,-99.99,,,-99.99,,2013-04-13 09:55:00,
2013-04-13 03:00:00,54.0,-99.9,29.80,East,91,0.0,0.0,-999,-99.99,,,-99.99,,2013-04-13 10:00:00,
2013-04-13 03:10:00,53.8,-99.9,29.79,NE,56,0.0,0.0,-999,-99.99,,,-99.99,,2013-04-13 10:10:00,
2013-04-13 03:20:00,53.9,-99.9,29.79,East,84,7.4,12.4,-999,-99.99,,,-99.99,,2013-04-13 10:20:00,
2013-04-13 03:30:00,53.6,-99.9,29.78,East,94,0.0,0.0,-999,-99.99,,,-99.99,,2013-04-13 10:30:00,
2013-04-13 03:40:00,53.3,-99.9,29.78,East,93,0.0,0.0,-999,-99.99,,,-99.99,,2013-04-13 10:40:00,
2013-04-13 03:45:00,53.2,-99.9,29.78,East,93,25.7,26.6,-999,-99.99,,,-99.99,,2013-04-13 10:45:00,
2013-04-13 03:55:00,53.3,-99.9,29.78,ENE,70,0.0,0.0,-999,-99.99,,,-99.99,,2013-04-13 10:55:00,
2013-04-13 04:00:00,53.2,-99.9,29.78,ENE,62,0.0,0.0,-999,-99.99,,,-99.99,,2013-04-13 11:00:00,
2013-04-13 04:10:00,53.3,-99.9,29.78,NE,56,0.0,0.0,-999,-99.99,,,-99.99,,2013-04-13 11:10:00,
2013-04-13 04:15:00,53.2,-99.9,29.78,ESE,104,0.0,16.6,-999,-99.99,,,-99.99,,2013-04-13 11:15:00,
2013-04-13 04:20:00,53.2,-99.9,29.78,SE,138,11.6,21.4,-999,-99.99,,,-99.99,,2013-04-13 11:20:00,
2013-04-13 04:30:00,52.8,-99.9,29.77,East,80,0.0,0.0,-999,-99.99,,,-99.99,,2013-04-13 11:30:00,
2013-04-13 04:43:00,53.0,-99.9,29.77,East,87,0.0,0.0,-999,-99.99,,,-99.99,,2013-04-13 11:43:00,
2013-04-13 04:50:00,53.0,-99.9,29.78,East,83,0.0,8.2,-999,-99.99,,,-99.99,,2013-04-13 11:50:00,
2013-04-13 05:00:00,52.9,-99.9,29.78,East,83,0.0,0.0,-999,-99.99,,,-99.99,,2013-04-13 12:00:00,
2013-04-13 05:10:00,52.9,-99.9,29.78,ENE,73,0.0,0.0,-999,-99.99,,,-99.99,,2013-04-13 12:10:00,
2013-04-13 05:20:00,53.0,-99.9,29.78,ENE,73,0.0,0.0,-999,-99.99,,,-99.99,,2013-04-13 12:20:00,
2013-04-13 05:25:00,52.9,-99.9,29.78,ENE,73,0.0,0.0,-999,-99.99,,,-99.99,,2013-04-13 12:25:00,
2013-04-13 05:30:00,52.8,-99.9,29.78,ENE,73,0.0,0.0,-999,-99.99,,,-99.99,,2013-04-13 12:30:00,
2013-04-13 05:35:00,52.6,-99.9,29.77,East,81,11.4,16.4,-999,-99.99,,,-99.99,,2013-04-13 12:35:00,
2013-04-13 05:40:00,52.6,-99.9,29.77,ENE,76,0.0,18.2,-999,-99.99,,,-99.99,,2013-04-13 12:40:00,
2013-04-13 05:50:00,51.9,-99.9,29.78,East,79,16.7,22.5,-999,-99.99,,,-99.99,,2013-04-13 12:50:00,
2013-04-13 05:55:00,52.0,-99.9,29.78,ESE,104,0.0,11.6,-999,-99.99,,,-99.99,,2013-04-13 12:55:00,
2013-04-13 06:00:00,52.0,-99.9,29.78,ESE,112,0.0,0.0,-999,-99.99,,,-99.99,,2013-04-13 13:00:00,
2013-04-13 06:10:00,52.1,-99.9,29.79,ESE,110,0.0,0.0,-999,-99.99,,,-99.99,,2013-04-13 13:10:00,
2013-04-13 06:15:00,52.0,-99.9,29.79,ESE,110,0.0,0.0,-999,-99.99,,,-99.99,,2013-04-13 13:15:00,
2013-04-13 06:20:00,52.0,-99.9,29.78,ESE,110,0.0,0.0,-999,-99.99,,,-99.99,,2013-04-13 13:20:00,
2013-04-13 06:30:00,52.2,-99.9,29.79,ESE,110,0.0,0.0,-999,-99.99,,,-99.99,,2013-04-13 13:30:00,
2013-04-13 06:35:00,52.2,-99.9,29.79,ESE,110,0.0,0.0,-999,-99.99,,,-99.99,,2013-04-13 13:35:00,
2013-04-13 06:40:00,52.0,-99.9,29.79,ESE,110,0.0,0.0,-999,-99.99,,,-99.99,,2013-04-13 13:40:00,
2013-04-13 06:50:00,52.0,-99.9,29.78,ESE,110,0.0,0.0,-999,-99.99,,,-99.99,,2013-04-13 13:50:00,
2013-04-13 06:55:00,51.9,-99.9,29.79,ESE,110,0.0,0.0,-999,-99.99,,,-99.99,,2013-04-13 13:55:00,
2013-04-13 07:00:00,51.9,-99.9,29.79,ESE,110,0.0,0.0,-999,-99.99,,,-99.99,,2013-04-13 14:00:00,
2013-04-13 07:05:00,51.9,-99.9,29.80,ESE,110,0.0,0.0,-999,-99.99,,,-99.99,,2013-04-13 14:05:00,
2013-04-13 07:10:00,51.7,-99.9,29.80,ESE,110,0.0,0.0,-999,-99.99,,,-99.99,,2013-04-13 14:10:00,
2013-04-13 07:15:00,51.9,-99.9,29.81,ESE,110,0.0,0.0,-999,-99.99,,,-99.99,,2013-04-13 14:15:00,
2013-04-13 07:20:00,51.9,-99.9,29.81,ESE,110,0.0,0.0,-999,-99.99,,,-99.99,,2013-04-13 14:20:00,
2013-04-13 07:25:00,51.9,-99.9,29.82,ESE,110,0.0,0.0,-999,-99.99,,,-99.99,,2013-04-13 14:25:00,
2013-04-13 07:30:00,51.8,-99.9,29.82,ESE,110,0.0,0.0,-999,-99.99,,,-99.99,,2013-04-13 14:30:00,
2013-04-13 07:35:00,51.8,-99.9,29.82,ESE,110,0.0,0.0,-999,-99.99,,,-99.99,,2013-04-13 14:35:00,
2013-04-13 07:40:00,51.9,-99.9,29.81,ESE,110,0.0,0.0,-999,-99.99,,,-99.99,,2013-04-13 14:40:00,
2013-04-13 07:45:00,52.0,-99.9,29.81,ESE,110,0.0,0.0,-999,-99.99,,,-99.99,,2013-04-13 14:45:00,
2013-04-13 07:50:00,52.1,-99.9,29.81,ESE,110,0.0,0.0,-999,-99.99,,,-99.99,,2013-04-13 14:50:00,
2013-04-13 07:55:00,52.0,-99.9,29.82,ESE,110,0.0,0.0,-999,-99.99,,,-99.99,,2013-04-13 14:55:00,
2013-04-13 08:00:00,52.1,-99.9,29.82,ESE,110,0.0,0.0,-999,-99.99,,,-99.99,,2013-04-13 15:00:00,
2013-04-13 08:10:00,52.2,-99.9,29.82,ESE,110,0.0,0.0,-999,-99.99,,,-99.99,,2013-04-13 15:10:00,
2013-04-13 08:20:00,52.6,-99.9,29.83,ESE,110,0.0,0.0,-999,-99.99,,,-99.99,,2013-04-13 15:20:00,
2013-04-13 08:25:00,52.8,-99.9,29.82,ESE,110,0.0,0.0,-999,-99.99,,,-99.99,,2013-04-13 15:25:00,
2013-04-13 08:30:00,52.9,-99.9,29.83,ESE,110,0.0,0.0,-999,-99.99,,,-99.99,,2013-04-13 15:30:00,
2013-04-13 08:35:00,53.0,-99.9,29.83,ESE,110,0.0,0.0,-999,-99.99,,,-99.99,,2013-04-13 15:35:00,
2013-04-13 08:40:00,53.1,-99.9,29.83,ESE,110,0.0,0.0,-999,-99.99,,,-99.99,,2013-04-13 15:40:00,
2013-04-13 08:45:00,53.2,-99.9,29.83,ESE,110,0.0,0.0,-999,-99.99,,,-99.99,,2013-04-13 15:45:00,
2013-04-13 08:50:00,53.4,-99.9,29.83,ESE,110,0.0,0.0,-999,-99.99,,,-99.99,,2013-04-13 15:50:00,
2013-04-13 08:55:00,53.5,-99.9,29.83,ESE,110,0.0,0.0,-999,-99.99,,,-99.99,,2013-04-13 15:55:00,
2013-04-13 09:00:00,53.7,-99.9,29.83,ESE,110,0.0,0.0,-999,-99.99,,,-99.99,,2013-04-13 16:00:00,
2013-04-13 09:05:00,53.9,-99.9,29.83,ESE,110,0.0,0.0,-999,-99.99,,,-99.99,,2013-04-13 16:05:00,
2013-04-13 09:10:00,54.2,-99.9,29.83,ESE,110,0.0,0.0,-999,-99.99,,,-99.99,,2013-04-13 16:10:00,
2013-04-13 09:15:00,54.3,-99.9,29.83,ESE,110,0.0,0.0,-999,-99.99,,,-99.99,,2013-04-13 16:15:00,
2013-04-13 09:20:00,54.4,-99.9,29.83,ESE,110,0.0,0.0,-999,-99.99,,,-99.99,,2013-04-13 16:20:00,
2013-04-13 09:30:00,54.5,-99.9,29.84,ESE,110,0.0,0.0,-999,-99.99,,,-99.99,,2013-04-13 16:30:00,
2013-04-13 09:35:00,54.5,-99.9,29.83,ESE,110,0.0,0.0,-999,-99.99,,,-99.99,,2013-04-13 16:35:00,
2013-04-13 09:40:00,54.5,-99.9,29.83,ESE,110,0.0,0.0,-999,-99.99,,,-99.99,,2013-04-13 16:40:00,
2013-04-13 09:50:00,55.6,-99.9,29.83,ESE,110,0.0,0.0,-999,-99.99,,,-99.99,,2013-04-13 16:50:00,
2013-04-13 10:00:00,55.2,-99.9,29.83,ESE,110,0.0,0.0,-999,-99.99,,,-99.99,,2013-04-13 17:00:00,
2013-04-13 10:10:00,55.7,-99.9,29.84,ESE,110,0.0,0.0,-999,-99.99,,,-99.99,,2013-04-13 17:10:00,
2013-04-13 10:20:00,56.0,-99.9,29.84,SW,231,0.0,0.0,-999,-99.99,,,-99.99,,2013-04-13 17:20:00,
2013-04-13 10:25:00,56.1,-99.9,29.84,SW,231,0.0,0.0,-999,-99.99,,,-99.99,,2013-04-13 17:25:00,
2013-04-13 10:30:00,56.2,-99.9,29.84,West,275,0.0,0.0,-999,-99.99,,,-99.99,,2013-04-13 17:30:00,
2013-04-13 10:40:00,56.6,-99.9,29.83,South,184,0.0,0.0,-999,-99.99,,,-99.99,,2013-04-13 17:40:00,
2013-04-13 10:45:00,56.7,-99.9,29.84,WSW,247,0.0,14.5,-999,-99.99,,,-99.99,,2013-04-13 17:45:00,
2013-04-13 10:55:00,57.1,-99.9,29.84,West,263,0.0,11.9,-999,-99.99,,,-99.99,,2013-04-13 17:55:00,
2013-04-13 11:05:00,57.2,-99.9,29.84,SW,223,0.0,0.0,-999,-99.99,,,-99.99,,2013-04-13 18:05:00,
2013-04-13 11:10:00,57.4,-99.9,29.84,SW,223,0.0,0.0,-999,-99.99,,,-99.99,,2013-04-13 18:10:00,
2013-04-13 11:15:00,57.7,-99.9,29.83,SW,223,0.0,0.0,-999,-99.99,,,-99.99,,2013-04-13 18:15:00,
2013-04-13 11:20:00,57.5,-99.9,29.83,SSW,206,0.0,5.8,-999,-99.99,,,-99.99,,2013-04-13 18:20:00,
2013-04-13 11:25:00,57.7,-99.9,29.83,SSW,201,0.0,0.0,-999,-99.99,,,-99.99,,2013-04-13 18:25:00,
2013-04-13 11:30:00,58.0,-99.9,29.83,SSW,201,0.0,0.0,-999,-99.99,,,-99.99,,2013-04-13 18:30:00,
2013-04-13 11:35:00,58.5,-99.9,29.83,WSW,256,16.6,18.3,-999,-99.99,,,-99.99,,2013-04-13 18:35:00,
2013-04-13 11:40:00,58.3,-99.9,29.83,WSW,247,0.0,0.0,-999,-99.99,,,-99.99,,2013-04-13 18:40:00,
2013-04-13 11:45:00,58.2,-99.9,29.83,WSW,247,0.0,0.0,-999,-99.99,,,-99.99,,2013-04-13 18:45:00,
2013-04-13 11:50:00,58.4,-99.9,29.83,WSW,247,0.0,0.0,-999,-99.99,,,-99.99,,2013-04-13 18:50:00,
2013-04-13 11:55:00,58.9,-99.9,29.83,WNW,297,0.0,15.4,-999,-99.99,,,-99.99,,2013-04-13 18:55:00,
2013-04-13 12:00:00,59.0,-99.9,29.83,WNW,299,0.0,0.0,-999,-99.99,,,-99.99,,2013-04-13 19:00:00,
2013-04-13 12:05:00,59.3,-99.9,29.84,WSW,238,0.0,13.2,-999,-99.99,,,-99.99,,2013-04-13 19:05:00,
2013-04-13 12:10:00,58.9,-99.9,29.83,WSW,238,0.0,0.0,-999,-99.99,,,-99.99,,2013-04-13 19:10:00,
2013-04-13 12:20:00,59.5,-99.9,29.83,WNW,302,7.1,16.1,-999,-99.99,,,-99.99,,2013-04-13 19:20:00,
2013-04-13 12:25:00,59.9,-99.9,29.82,WSW,247,0.0,15.4,-999,-99.99,,,-99.99,,2013-04-13 19:25:00,
2013-04-13 12:30:00,59.7,-99.9,29.82,NW,324,0.0,0.0,-999,-99.99,,,-99.99,,2013-04-13 19:30:00,
2013-04-13 12:35:00,60.2,-99.9,29.82,West,265,0.0,11.3,-999,-99.99,,,-99.99,,2013-04-13 19:35:00,
2013-04-13 12:40:00,60.4,-99.9,29.82,WNW,300,0.0,0.0,-999,-99.99,,,-99.99,,2013-04-13 19:40:00,
2013-04-13 12:45:00,60.5,-99.9,29.82,WNW,295,8.9,8.9,-999,-99.99,,,-99.99,,2013-04-13 19:45:00,
2013-04-13 12:50:00,60.7,-99.9,29.82,SW,217,0.0,8.7,-999,-99.99,,,-99.99,,2013-04-13 19:50:00,
2013-04-13 12:55:00,60.9,-99.9,29.81,WSW,237,0.0,11.3,-999,-99.99,,,-99.99,,2013-04-13 19:55:00,
2013-04-13 13:00:00,61.1,-99.9,29.82,NW,316,0.0,0.0,-999,-99.99,,,-99.99,,2013-04-13 20:00:00,
2013-04-13 13:10:00,61.4,-99.9,29.81,West,262,7.7,16.1,-999,-99.99,,,-99.99,,2013-04-13 20:10:00,
2013-04-13 13:15:00,61.7,-99.9,29.81,WNW,293,7.7,13.4,-999,-99.99,,,-99.99,,2013-04-13 20:15:00,
2013-04-13 13:20:00,61.8,-99.9,29.81,West,273,0.0,11.9,-999,-99.99,,,-99.99,,2013-04-13 20:20:00,
2013-04-13 13:25:00,62.0,-99.9,29.81,WSW,241,14.6,16.4,-999,-99.99,,,-99.99,,2013-04-13 20:25:00,
2013-04-13 13:30:00,61.5,-99.9,29.81,SW,234,0.0,0.0,-999,-99.99,,,-99.99,,2013-04-13 20:30:00,
2013-04-13 13:35:00,61.9,-99.9,29.81,WSW,252,0.0,14.0,-999,-99.99,,,-99.99,,2013-04-13 20:35:00,
2013-04-13 13:40:00,62.2,-99.9,29.81,WNW,300,11.7,23.8,-999,-99.99,,,-99.99,,2013-04-13 20:40:00,
2013-04-13 13:50:00,62.4,-99.9,29.80,NW,316,0.0,7.9,-999,-99.99,,,-99.99,,2013-04-13 20:50:00,
2013-04-13 13:55:00,62.5,-99.9,29.80,WSW,254,8.2,14.2,-999,-99.99,,,-99.99,,2013-04-13 20:55:00,
2013-04-13 14:00:00,62.5,-99.9,29.80,West,262,0.0,0.0,-999,-99.99,,,-99.99,,2013-04-13 21:00:00,
2013-04-13 14:10:00,62.8,-99.9,29.80,SW,217,0.0,7.4,-999,-99.99,,,-99.99,,2013-04-13 21:10:00,
2013-04-13 14:20:00,63.4,-99.9,29.80,West,272,0.0,27.5,-999,-99.99,,,-99.99,,2013-04-13 21:20:00,
2013-04-13 14:30:00,63.4,-99.9,29.80,WNW,297,0.0,8.2,-999,-99.99,,,-99.99,,2013-04-13 21:30:00,
2013-04-13 14:40:00,63.4,-99.9,29.80,NW,321,0.0,0.0,-999,-99.99,,,-99.99,,2013-04-13 21:40:00,
2013-04-13 14:50:00,63.8,-99.9,29.80,West,275,0.0,15.1,-999,-99.99,,,-99.99,,2013-04-13 21:50:00,
2013-04-13 14:55:00,64.0,-99.9,29.80,West,268,0.0,0.0,-999,-99.99,,,-99.99,,2013-04-13 21:55:00,
2013-04-13 15:00:00,63.9,-99.9,29.80,SW,234,0.0,7.4,-999,-99.99,,,-99.99,,2013-04-13 22:00:00,
2013-04-13 15:10:00,64.2,-99.9,29.79,WSW,244,0.0,8.2,-999,-99.99,,,-99.99,,2013-04-13 22:10:00,
2013-04-13 15:15:00,64.6,-99.9,29.79,WSW,252,0.0,11.3,-999,-99.99,,,-99.99,,2013-04-13 22:15:00,
2013-04-13 15:20:00,64.5,-99.9,29.79,WNW,292,6.8,7.4,-999,-99.99,,,-99.99,,2013-04-13 22:20:00,
2013-04-13 15:25:00,64.8,-99.9,29.79,SSW,210,0.0,12.4,-999,-99.99,,,-99.99,,2013-04-13 22:25:00,
2013-04-13 15:30:00,64.8,-99.9,29.79,NNE,31,0.0,8.5,-999,-99.99,,,-99.99,,2013-04-13 22:30:00,
2013-04-13 15:40:00,65.0,-99.9,29.79,West,280,0.0,0.0,-999,-99.99,,,-99.99,,2013-04-13 22:40:00,
2013-04-13 15:45:00,65.2,-99.9,29.79,WSW,237,0.0,14.3,-999,-99.99,,,-99.99,,2013-04-13 22:45:00,
2013-04-13 15:50:00,65.0,-99.9,29.78,WSW,258,0.0,0.0,-999,-99.99,,,-99.99,,2013-04-13 22:50:00,
2013-04-13 16:00:00,65.1,-99.9,29.78,WNW,303,0.0,0.0,-999,-99.99,,,-99.99,,2013-04-13 23:00:00,
2013-04-13 16:10:00,65.3,-99.9,29.78,WNW,286,0.0,13.0,-999,-99.99,,,-99.99,,2013-04-13 23:10:00,
2013-04-13 16:20:00,65.4,-99.9,29.78,WSW,249,8.7,17.9,-999,-99.99,,,-99.99,,2013-04-13 23:20:00,
2013-04-13 16:30:00,65.4,-99.9,29.78,WNW,296,17.1,22.7,-999,-99.99,,,-99.99,,2013-04-13 23:30:00,
2013-04-13 16:40:00,65.2,-99.9,29.78,South,169,0.0,21.7,-999,-99.99,,,-99.99,,2013-04-13 23:40:00,
2013-04-13 16:50:00,65.2,-99.9,29.78,SW,218,0.0,11.6,-999,-99.99,,,-99.99,,2013-04-13 23:50:00,
2013-04-13 17:00:00,65.3,-99.9,29.78,SW,218,0.0,0.0,-999,-99.99,,,-99.99,,2013-04-14 00:00:00,
2013-04-13 17:10:00,65.3,-99.9,29.78,WNW,297,0.0,0.0,-999,-99.99,,,-99.99,,2013-04-14 00:10:00,
2013-04-13 17:20:00,65.2,-99.9,29.78,West,269,10.8,13.4,-999,-99.99,,,-99.99,,2013-04-14 00:20:00,
2013-04-13 17:25:00,65.1,-99.9,29.78,WSW,252,8.7,8.7,-999,-99.99,,,-99.99,,2013-04-14 00:25:00,
2013-04-13 17:30:00,65.2,-99.9,29.78,WNW,285,13.5,14.8,-999,-99.99,,,-99.99,,2013-04-14 00:30:00,
2013-04-13 17:40:00,65.2,-99.9,29.79,WSW,244,0.0,15.9,-999,-99.99,,,-99.99,,2013-04-14 00:40:00,
2013-04-13 17:45:00,65.1,-99.9,29.79,WNW,287,9.0,13.8,-999,-99.99,,,-99.99,,2013-04-14 00:45:00,
2013-04-13 17:50:00,64.9,-99.9,29.78,WSW,242,13.5,24.8,-999,-99.99,,,-99.99,,2013-04-14 00:50:00,
2013-04-13 18:00:00,65.0,-99.9,29.78,NNE,26,0.0,0.0,-999,-99.99,,,-99.99,,2013-04-14 01:00:00,
2013-04-13 18:05:00,65.1,-99.9,29.79,WSW,255,19.3,20.0,-999,-99.99,,,-99.99,,2013-04-14 01:05:00,
2013-04-13 18:10:00,64.9,-99.9,29.78,WNW,287,10.6,16.9,-999,-99.99,,,-99.99,,2013-04-14 01:10:00,
2013-04-13 18:15:00,64.9,-99.9,29.78,West,269,0.0,0.0,-999,-99.99,,,-99.99,,2013-04-14 01:15:00,
2013-04-13 18:20:00,64.9,-99.9,29.79,WSW,255,0.0,0.0,-999,-99.99,,,-99.99,,2013-04-14 01:20:00,
2013-04-13 18:25:00,64.9,-99.9,29.79,WSW,255,0.0,0.0,-999,-99.99,,,-99.99,,2013-04-14 01:25:00,
2013-04-13 18:30:00,64.7,-99.9,29.79,North,4,0.0,0.0,-999,-99.99,,,-99.99,,2013-04-14 01:30:00,
2013-04-13 18:35:00,64.5,-99.9,29.79,West,259,0.0,13.4,-999,-99.99,,,-99.99,,2013-04-14 01:35:00,
2013-04-13 18:40:00,64.3,-99.9,29.79,WSW,238,0.0,8.9,-999,-99.99,,,-99.99,,2013-04-14 01:40:00,
2013-04-13 18:45:00,64.1,-99.9,29.80,South,177,0.0,8.9,-999,-99.99,,,-99.99,,2013-04-14 01:45:00,
2013-04-13 18:50:00,64.2,-99.9,29.80,South,177,0.0,0.0,-999,-99.99,,,-99.99,,2013-04-14 01:50:00,
2013-04-13 18:55:00,64.2,-99.9,29.80,South,177,0.0,0.0,-999,-99.99,,,-99.99,,2013-04-14 01:55:00,
2013-04-13 19:00:00,64.1,-99.9,29.80,South,177,0.0,0.0,-999,-99.99,,,-99.99,,2013-04-14 02:00:00,
2013-04-13 19:05:00,64.0,-99.9,29.80,WSW,239,0.0,0.0,-999,-99.99,,,-99.99,,2013-04-14 02:05:00,
2013-04-13 19:10:00,63.7,-99.9,29.79,WSW,239,0.0,0.0,-999,-99.99,,,-99.99,,2013-04-14 02:10:00,
2013-04-13 19:15:00,63.6,-99.9,29.80,WSW,239,0.0,0.0,-999,-99.99,,,-99.99,,2013-04-14 02:15:00,
2013-04-13 19:20:00,63.4,-99.9,29.80,WSW,239,0.0,0.0,-999,-99.99,,,-99.99,,2013-04-14 02:20:00,
2013-04-13 19:25:00,63.4,-99.9,29.80,WSW,239,0.0,0.0,-999,-99.99,,,-99.99,,2013-04-14 02:25:00,
2013-04-13 19:30:00,63.1,-99.9,29.79,WSW,239,0.0,0.0,-999,-99.99,,,-99.99,,2013-04-14 02:30:00,
2013-04-13 19:35:00,63.0,-99.9,29.80,West,279,0.0,0.0,-999,-99.99,,,-99.99,,2013-04-14 02:35:00,
2013-04-13 19:40:00,63.0,-99.9,29.80,West,279,0.0,0.0,-999,-99.99,,,-99.99,,2013-04-14 02:40:00,
2013-04-13 19:45:00,62.9,-99.9,29.80,West,279,0.0,0.0,-999,-99.99,,,-99.99,,2013-04-14 02:45:00,
2013-04-13 19:50:00,62.9,-99.9,29.80,West,279,0.0,0.0,-999,-99.99,,,-99.99,,2013-04-14 02:50:00,
2013-04-13 19:55:00,62.7,-99.9,29.80,West,265,0.0,0.0,-999,-99.99,,,-99.99,,2013-04-14 02:55:00,
2013-04-13 20:00:00,62.5,-99.9,29.80,WSW,239,0.0,0.0,-999,-99.99,,,-99.99,,2013-04-14 03:00:00,
2013-04-13 20:05:00,62.4,-99.9,29.80,WSW,239,0.0,0.0,-999,-99.99,,,-99.99,,2013-04-14 03:05:00,
2013-04-13 20:10:00,62.1,-99.9,29.79,WSW,239,0.0,0.0,-999,-99.99,,,-99.99,,2013-04-14 03:10:00,
2013-04-13 20:15:00,61.8,-99.9,29.80,WSW,239,0.0,0.0,-999,-99.99,,,-99.99,,2013-04-14 03:15:00,
2013-04-13 20:20:00,62.0,-99.9,29.80,WSW,239,0.0,0.0,-999,-99.99,,,-99.99,,2013-04-14 03:20:00,
2013-04-13 20:25:00,62.0,-99.9,29.80,WSW,239,0.0,0.0,-999,-99.99,,,-99.99,,2013-04-14 03:25:00,
2013-04-13 20:30:00,61.7,-99.9,29.80,WSW,239,0.0,0.0,-999,-99.99,,,-99.99,,2013-04-14 03:30:00,
2013-04-13 20:40:00,61.4,-99.9,29.81,WSW,239,0.0,0.0,-999,-99.99,,,-99.99,,2013-04-14 03:40:00,
2013-04-13 20:45:00,61.0,-99.9,29.81,WSW,239,0.0,0.0,-999,-99.99,,,-99.99,,2013-04-14 03:45:00,
2013-04-13 20:50:00,61.1,-99.9,29.82,WSW,239,0.0,0.0,-999,-99.99,,,-99.99,,2013-04-14 03:50:00,
2013-04-13 21:00:00,60.9,-99.9,29.82,WSW,239,0.0,0.0,-999,-99.99,,,-99.99,,2013-04-14 04:00:00,
2013-04-13 21:05:00,60.9,-99.9,29.82,WSW,239,0.0,0.0,-999,-99.99,,,-99.99,,2013-04-14 04:05:00,
2013-04-13 21:10:00,60.4,-99.9,29.82,WSW,239,0.0,0.0,-999,-99.99,,,-99.99,,2013-04-14 04:10:00,
2013-04-13 21:15:00,60.5,-99.9,29.82,WSW,239,0.0,0.0,-999,-99.99,,,-99.99,,2013-04-14 04:15:00,
2013-04-13 21:20:00,60.5,-99.9,29.82,WSW,239,0.0,0.0,-999,-99.99,,,-99.99,,2013-04-14 04:20:00,
2013-04-13 21:25:00,60.0,-99.9,29.82,WSW,239,0.0,0.0,-999,-99.99,,,-99.99,,2013-04-14 04:25:00,
2013-04-13 21:30:00,59.7,-99.9,29.83,WSW,239,0.0,0.0,-999,-99.99,,,-99.99,,2013-04-14 04:30:00,
2013-04-13 21:35:00,59.7,-99.9,29.83,WSW,239,0.0,0.0,-999,-99.99,,,-99.99,,2013-04-14 04:35:00,
2013-04-13 21:40:00,59.4,-99.9,29.83,WSW,239,0.0,0.0,-999,-99.99,,,-99.99,,2013-04-14 04:40:00,
2013-04-13 21:45:00,59.0,-99.9,29.83,WSW,239,0.0,0.0,-999,-99.99,,,-99.99,,2013-04-14 04:45:00,
2013-04-13 21:50:00,58.9,-99.9,29.83,WSW,239,0.0,0.0,-999,-99.99,,,-99.99,,2013-04-14 04:50:00,
2013-04-13 21:55:00,59.0,-99.9,29.83,WSW,239,0.0,0.0,-999,-99.99,,,-99.99,,2013-04-14 04:55:00,
2013-04-13 22:00:00,58.7,-99.9,29.83,WSW,239,0.0,0.0,-999,-99.99,,,-99.99,,2013-04-14 05:00:00,
2013-04-13 22:05:00,58.5,-99.9,29.83,WSW,239,0.0,0.0,-999,-99.99,,,-99.99,,2013-04-14 05:05:00,
2013-04-13 22:10:00,58.5,-99.9,29.83,WSW,239,0.0,0.0,-999,-99.99,,,-99.99,,2013-04-14 05:10:00,
2013-04-13 22:15:00,58.2,-99.9,29.83,WSW,239,0.0,0.0,-999,-99.99,,,-99.99,,2013-04-14 05:15:00,
2013-04-13 22:20:00,58.5,-99.9,29.83,WSW,239,0.0,0.0,-999,-99.99,,,-99.99,,2013-04-14 05:20:00,
2013-04-13 22:30:00,58.3,-99.9,29.84,WSW,239,0.0,0.0,-999,-99.99,,,-99.99,,2013-04-14 05:30:00,
2013-04-13 22:40:00,57.8,-99.9,29.83,WSW,239,0.0,0.0,-999,-99.99,,,-99.99,,2013-04-14 05:40:00,
2013-04-13 22:45:00,58.0,-99.9,29.83,WSW,239,0.0,0.0,-999,-99.99,,,-99.99,,2013-04-14 05:45:00,
2013-04-13 22:50:00,57.8,-99.9,29.83,WSW,239,0.0,0.0,-999,-99.99,,,-99.99,,2013-04-14 05:50:00,
2013-04-13 22:55:00,57.4,-99.9,29.83,WSW,239,0.0,0.0,-999,-99.99,,,-99.99,,2013-04-14 05:55:00,
2013-04-13 23:00:00,57.6,-99.9,29.83,WSW,239,0.0,0.0,-999,-99.99,,,-99.99,,2013-04-14 06:00:00,
2013-04-13 23:10:00,57.3,-99.9,29.83,WSW,239,0.0,0.0,-999,-99.99,,,-99.99,,2013-04-14 06:10:00,
2013-04-13 23:15:00,57.5,-99.9,29.83,WSW,239,0.0,0.0,-999,-99.99,,,-99.99,,2013-04-14 06:15:00,
2013-04-13 23:20:00,57.2,-99.9,29.83,WSW,239,0.0,0.0,-999,-99.99,,,-99.99,,2013-04-14 06:20:00,
2013-04-13 23:30:00,56.1,-99.9,29.84,WSW,239,0.0,0.0,-999,-99.99,,,-99.99,,2013-04-14 06:30:00,
2013-04-13 23:40:00,56.4,-99.9,29.84,WSW,239,0.0,0.0,-999,-99.99,,,-99.99,,2013-04-14 06:40:00,
2013-04-13 23:50:00,56.4,-99.9,29.84,WSW,239,0.0,0.0,-999,-99.99,,,-99.99,,2013-04-14 06:50:00,